Time;durP1;ratioP1;P1;durP2;ratioP2;P2;SDS_P1;SDS_P2;PMS_P1;PMS_P2;Temp;Humidity;BMP_temperature;BMP_pressure;BME280_temperature;BME280_humidity;BME280_pressure;Samples;Min_cycle;Max_cycle;Signal;HPM_P1;HPM_P2
2022/07/19 00:00:35;;;;;;;10.20;2.70;;;;;;;18.74;55.80;101215.09;107995;1276;72984;-87
2022/07/19 00:03:02;;;;;;;9.70;2.90;;;;;;;18.71;55.96;101216.48;107995;1276;60634;-87
2022/07/19 00:05:29;;;;;;;9.70;3.30;;;;;;;18.66;56.10;101216.95;108003;1276;60046;-87
2022/07/19 00:07:56;;;;;;;11.50;3.40;;;;;;;18.60;56.30;101214.80;107875;1277;76266;-87
2022/07/19 00:10:23;;;;;;;7.80;2.90;;;;;;;18.51;56.33;101213.30;107721;1276;72662;-87
2022/07/19 00:12:50;;;;;;;8.00;3.00;;;;;;;18.43;56.36;101216.70;107567;1279;73051;-86
2022/07/19 00:15:17;;;;;;;6.90;2.90;;;;;;;18.35;56.43;101215.96;108001;1276;61919;-86
2022/07/19 00:17:47;;;;;;;9.20;2.90;;;;;;;18.28;56.59;101214.54;108220;1277;60795;-86
2022/07/19 00:20:16;;;;;;;11.00;3.30;;;;;;;18.22;56.78;101213.12;108232;1278;75526;-87
2022/07/19 00:22:44;;;;;;;6.80;2.80;;;;;;;18.16;57.03;101217.40;108292;1276;71278;-87
2022/07/19 00:25:11;;;;;;;7.60;3.10;;;;;;;18.10;57.17;101210.98;108358;1276;73182;-86
2022/07/19 00:27:40;;;;;;;6.40;2.60;;;;;;;18.06;57.54;101206.23;108302;1277;62227;-86
2022/07/19 00:30:08;;;;;;;7.40;2.90;;;;;;;18.01;57.78;101211.51;108291;1278;60844;-86
2022/07/19 00:32:34;;;;;;;7.90;2.80;;;;;;;17.98;57.93;101210.48;108324;1277;76306;-86
2022/07/19 00:35:02;;;;;;;8.00;2.90;;;;;;;17.97;58.20;101212.10;108371;1278;71393;-87
2022/07/19 00:37:29;;;;;;;7.70;2.90;;;;;;;17.95;58.53;101214.31;108290;1277;73878;-86
2022/07/19 00:39:56;;;;;;;6.10;2.90;;;;;;;17.91;58.56;101213.89;108324;1276;62301;-86
2022/07/19 00:42:23;;;;;;;7.50;2.90;;;;;;;17.87;58.56;101212.41;108316;1276;60492;-86
2022/07/19 00:44:50;;;;;;;5.50;2.70;;;;;;;17.83;58.61;101211.84;108426;1276;75799;-86
2022/07/19 00:47:17;;;;;;;7.00;2.80;;;;;;;17.81;58.73;101216.61;108365;1278;71534;-86
2022/07/19 00:49:44;;;;;;;6.20;2.60;;;;;;;17.78;58.79;101212.80;108382;1276;73758;-86
2022/07/19 00:52:13;;;;;;;9.40;2.80;;;;;;;17.77;58.78;101210.01;108267;1278;61189;-87
2022/07/19 00:54:42;;;;;;;5.70;2.50;;;;;;;17.74;58.79;101207.29;108381;1276;60686;-87
2022/07/19 00:57:10;;;;;;;4.00;2.40;;;;;;;17.73;58.83;101211.58;108274;1277;75354;-87
2022/07/19 00:59:38;;;;;;;6.90;2.30;;;;;;;17.71;59.15;101212.73;108296;1277;73088;-87
2022/07/19 01:02:05;;;;;;;6.10;2.50;;;;;;;17.68;59.19;101216.17;108096;1278;73017;-87
2022/07/19 01:04:33;;;;;;;6.20;2.60;;;;;;;17.65;59.33;101217.66;107951;1277;63384;-87
2022/07/19 01:07:00;;;;;;;6.20;2.60;;;;;;;17.62;59.67;101214.13;107816;1278;61980;-86
2022/07/19 01:09:29;;;;;;;7.10;2.60;;;;;;;17.59;59.74;101218.66;107991;1276;74790;-86
2022/07/19 01:11:56;;;;;;;8.10;2.90;;;;;;;17.55;59.92;101218.35;107849;1276;71424;-86
2022/07/19 01:14:23;;;;;;;6.10;2.90;;;;;;;17.49;59.99;101216.23;107788;1279;73503;-87
2022/07/19 01:16:51;;;;;;;7.50;2.60;;;;;;;17.43;60.05;101220.09;107893;1278;62249;-86
2022/07/19 01:19:18;;;;;;;7.10;2.70;;;;;;;17.38;60.19;101220.98;107450;1276;698713;-86
2022/07/19 01:21:45;;;;;;;8.40;2.80;;;;;;;17.32;60.40;101219.27;107957;1276;76492;-87
2022/07/19 01:24:12;;;;;;;5.80;2.70;;;;;;;17.26;60.72;101223.80;107936;1276;70414;-86
2022/07/19 01:26:39;;;;;;;5.70;2.50;;;;;;;17.19;60.98;101219.75;107683;1279;74306;-87
2022/07/19 01:29:06;;;;;;;9.40;2.80;;;;;;;17.14;61.12;101222.28;107925;1276;62241;-86
2022/07/19 01:31:34;;;;;;;7.60;3.10;;;;;;;17.09;61.23;101222.55;107706;1276;60612;-86
2022/07/19 01:34:01;;;;;;;7.00;2.90;;;;;;;17.04;61.56;101223.50;107819;1276;74302;-87
2022/07/19 01:36:28;;;;;;;6.70;2.60;;;;;;;17.00;61.67;101221.42;107937;1276;71560;-86
2022/07/19 01:38:55;;;;;;;5.50;2.60;;;;;;;16.95;61.74;101224.36;108007;1276;72992;-86
2022/07/19 01:41:23;;;;;;;7.70;2.70;;;;;;;16.93;62.08;101223.77;107842;1277;63454;-86
2022/07/19 01:43:49;;;;;;;7.20;2.70;;;;;;;16.89;62.28;101226.16;108091;1276;60324;-87
2022/07/19 01:46:17;;;;;;;5.70;2.50;;;;;;;16.85;62.52;101223.39;107841;1277;74918;-87
2022/07/19 01:48:44;;;;;;;7.90;2.50;;;;;;;16.82;62.67;101222.93;108039;1276;72569;-87
2022/07/19 01:51:11;;;;;;;6.30;2.80;;;;;;;16.79;62.90;101221.95;107780;1276;72066;-86
2022/07/19 01:53:38;;;;;;;5.90;2.70;;;;;;;16.78;63.00;101222.73;107831;1276;61971;-87
2022/07/19 01:56:08;;;;;;;15.80;2.80;;;;;;;16.76;62.97;101223.43;108008;1276;61389;-86
2022/07/19 01:58:35;;;;;;;6.90;2.80;;;;;;;16.74;63.13;101218.60;107873;1277;75555;-86
2022/07/19 02:01:02;;;;;;;7.50;2.40;;;;;;;16.71;63.28;101218.72;108006;1276;72754;-86
2022/07/19 02:03:29;;;;;;;7.30;2.90;;;;;;;16.69;63.25;101221.15;107971;1276;71316;-86
2022/07/19 02:05:56;;;;;;;4.40;2.40;;;;;;;16.67;63.49;101223.87;108000;1276;62845;-86
2022/07/19 02:08:24;;;;;;;5.50;2.40;;;;;;;16.65;63.67;101220.56;107996;1276;60894;-87
2022/07/19 02:10:51;;;;;;;6.10;2.60;;;;;;;16.64;63.69;101225.61;107992;1276;76687;-86
2022/07/19 02:13:18;;;;;;;4.40;2.50;;;;;;;16.61;63.80;101220.20;107970;1279;71709;-86
2022/07/19 02:15:45;;;;;;;7.10;2.80;;;;;;;16.59;64.03;101221.29;107955;1278;72764;-86
2022/07/19 02:18:12;;;;;;;4.40;2.40;;;;;;;16.55;64.13;101222.26;107885;1276;62200;-86
2022/07/19 02:20:40;;;;;;;6.20;2.50;;;;;;;16.52;64.36;101220.68;107932;1277;60309;-86
2022/07/19 02:23:07;;;;;;;7.70;2.70;;;;;;;16.49;64.46;101220.00;107810;1277;75749;-87
2022/07/19 02:25:34;;;;;;;6.30;2.60;;;;;;;16.45;64.66;101222.20;108006;1276;71669;-87
2022/07/19 02:28:01;;;;;;;4.60;2.60;;;;;;;16.40;64.85;101220.15;108122;1277;73004;-87
2022/07/19 02:30:29;;;;;;;7.30;2.90;;;;;;;16.37;64.86;101219.94;108167;1276;62281;-87
2022/07/19 02:32:56;;;;;;;5.10;2.60;;;;;;;16.32;65.01;101219.42;107934;1278;59962;-86
2022/07/19 02:35:25;;;;;;;5.60;2.70;;;;;;;16.28;65.05;101218.86;107720;1276;76111;-86
2022/07/19 02:37:52;;;;;;;6.60;2.80;;;;;;;16.22;65.17;101216.70;107712;1278;73041;-86
2022/07/19 02:40:20;;;;;;;6.10;2.80;;;;;;;16.19;65.37;101221.13;107767;1276;73092;-87
2022/07/19 02:42:46;;;;;;;5.10;2.80;;;;;;;16.14;65.57;101221.73;107940;1276;62056;-87
2022/07/19 02:45:14;;;;;;;8.00;2.80;;;;;;;16.11;65.68;101229.67;107941;1277;60380;-87
2022/07/19 02:47:41;;;;;;;7.10;2.90;;;;;;;16.07;65.64;101230.05;107929;1276;74602;-87
2022/07/19 02:50:08;;;;;;;7.90;3.00;;;;;;;16.03;65.72;101234.36;107946;1276;71531;-86
2022/07/19 02:52:35;;;;;;;4.60;2.60;;;;;;;15.99;65.96;101229.69;107884;1276;72982;-87
2022/07/19 02:55:03;;;;;;;5.30;2.80;;;;;;;15.97;66.15;101228.40;107961;1276;62193;-86
2022/07/19 02:57:30;;;;;;;5.10;2.60;;;;;;;15.94;66.41;101231.80;107932;1276;61343;-87
2022/07/19 02:59:57;;;;;;;5.60;2.80;;;;;;;15.93;66.47;101232.29;107827;1276;75872;-87
2022/07/19 03:02:24;;;;;;;5.30;2.80;;;;;;;15.91;66.67;101236.09;107761;1276;72682;-87
2022/07/19 03:04:51;;;;;;;7.10;3.00;;;;;;;15.90;66.70;101232.63;107920;1276;72973;-87
2022/07/19 03:07:18;;;;;;;6.50;2.50;;;;;;;15.88;66.90;101231.92;107765;1278;62277;-86
2022/07/19 03:09:47;;;;;;;5.30;2.80;;;;;;;15.87;67.20;101229.46;107407;1279;61659;-87
2022/07/19 03:12:14;;;;;;;7.70;2.90;;;;;;;15.85;67.15;101230.39;107852;1277;75681;-87
2022/07/19 03:14:41;;;;;;;7.00;2.70;;;;;;;15.83;67.46;101227.81;107656;1276;71199;-86
2022/07/19 03:17:08;;;;;;;5.40;2.70;;;;;;;15.81;67.48;101227.06;107959;1275;72962;-86
2022/07/19 03:19:35;;;;;;;8.40;2.80;;;;;;;15.80;67.48;101224.02;107997;1276;62304;-86
2022/07/19 03:22:02;;;;;;;7.40;2.70;;;;;;;15.79;67.75;101223.42;107778;1277;62268;-87
2022/07/19 03:24:29;;;;;;;5.50;2.50;;;;;;;15.78;67.87;101223.81;107716;1276;74360;-87
2022/07/19 03:26:57;;;;;;;4.70;2.70;;;;;;;15.77;68.18;101225.36;107725;1277;71496;-87
2022/07/19 03:29:24;;;;;;;7.60;3.10;;;;;;;15.78;68.28;101223.72;107654;1277;72636;-87
2022/07/19 03:31:56;;;;;;;8.30;2.90;;;;;;;15.78;68.20;101220.83;107946;1277;62175;-86
2022/07/19 03:34:24;;;;;;;5.30;2.70;;;;;;;15.79;68.39;101216.07;107658;1278;61400;-86
2022/07/19 03:36:51;;;;;;;6.50;3.00;;;;;;;15.80;68.41;101216.82;107802;1276;76156;-86
2022/07/19 03:39:18;;;;;;;6.20;2.60;;;;;;;15.82;68.58;101213.74;107826;1277;70765;-86
2022/07/19 03:41:48;;;;;;;6.00;2.80;;;;;;;15.83;68.63;101214.78;107915;1277;73604;-86
2022/07/19 03:44:15;;;;;;;5.80;2.80;;;;;;;15.84;68.69;101215.73;107830;1279;61974;-86
2022/07/19 03:46:42;;;;;;;7.10;2.70;;;;;;;15.85;68.86;101215.27;107784;1277;60341;-87
2022/07/19 03:49:10;;;;;;;7.30;3.20;;;;;;;15.87;68.89;101220.40;107927;1277;76021;-87
2022/07/19 03:51:37;;;;;;;6.60;2.90;;;;;;;15.91;68.73;101222.43;108001;1277;71404;-86
2022/07/19 03:54:04;;;;;;;7.50;2.90;;;;;;;15.94;68.66;101225.04;107835;1277;74649;-87
2022/07/19 03:56:32;;;;;;;7.80;3.20;;;;;;;15.97;68.63;101224.27;108023;1277;62079;-86
2022/07/19 03:58:59;;;;;;;5.50;2.90;;;;;;;15.99;68.84;101223.67;107790;1278;60463;-87
2022/07/19 04:01:26;;;;;;;6.40;2.90;;;;;;;16.04;68.69;101227.26;107968;1277;74867;-87
2022/07/19 04:03:54;;;;;;;6.20;2.80;;;;;;;16.11;68.64;101233.17;107857;1277;71430;-87
2022/07/19 04:06:21;;;;;;;7.80;2.70;;;;;;;16.16;68.61;101231.13;107793;1278;71442;-87
2022/07/19 04:08:48;;;;;;;7.20;3.40;;;;;;;16.21;68.49;101229.25;107921;1277;62809;-87
2022/07/19 04:11:15;;;;;;;8.20;3.20;;;;;;;16.26;68.54;101230.69;107923;1277;62393;-86
2022/07/19 04:13:42;;;;;;;6.30;3.10;;;;;;;16.32;68.42;101232.94;107829;1277;73932;-87
2022/07/19 04:16:09;;;;;;;6.00;3.00;;;;;;;16.40;68.31;101234.83;107880;1277;72522;-85
2022/07/19 04:18:38;;;;;;;8.00;3.00;;;;;;;16.46;68.28;101234.84;107675;1277;74240;-85
2022/07/19 04:21:08;;;;;;;5.10;3.10;;;;;;;16.55;68.27;101233.91;107928;1277;62291;-85
2022/07/19 04:23:35;;;;;;;6.50;3.00;;;;;;;16.63;68.14;101236.58;107763;1278;60033;-85
2022/07/19 04:26:03;;;;;;;6.90;2.90;;;;;;;16.71;68.11;101240.19;107693;1279;76307;-84
2022/07/19 04:28:32;;;;;;;7.30;3.20;;;;;;;16.77;68.03;101243.21;107869;1275;71554;-85
2022/07/19 04:31:00;;;;;;;7.80;2.90;;;;;;;16.83;67.99;101246.55;107670;1277;72945;-84
2022/07/19 04:33:27;;;;;;;7.60;3.00;;;;;;;16.89;67.90;101248.14;108013;1277;61910;-84
2022/07/19 04:35:54;;;;;;;9.30;2.80;;;;;;;16.96;67.85;101249.63;107616;1277;60645;-84
2022/07/19 04:38:22;;;;;;;10.20;3.80;;;;;;;17.03;67.65;101250.59;107767;1277;76374;-84
2022/07/19 04:40:49;;;;;;;11.70;3.60;;;;;;;17.14;67.50;101249.36;107776;1277;71921;-83
2022/07/19 04:43:25;;;;;;;10.20;4.20;;;;;;;17.25;67.22;101245.41;107809;1277;73090;-84
2022/07/19 04:45:51;;;;;;;6.40;3.20;;;;;;;17.36;67.00;101250.59;107663;1277;61985;-84
2022/07/19 04:48:18;;;;;;;7.70;3.30;;;;;;;17.46;66.77;101252.22;107561;1277;60607;-84
2022/07/19 04:50:45;;;;;;;8.20;3.20;;;;;;;17.58;66.46;101247.98;107865;1277;75787;-83
2022/07/19 04:53:13;;;;;;;10.20;3.00;;;;;;;17.69;66.21;101249.48;107748;1277;72730;-84
2022/07/19 04:55:40;;;;;;;7.60;2.70;;;;;;;17.81;65.97;101249.82;107534;1277;72041;-84
2022/07/19 04:58:07;;;;;;;6.70;2.80;;;;;;;17.94;65.78;101248.12;107987;1276;60634;-84
2022/07/19 05:00:34;;;;;;;9.00;3.00;;;;;;;18.07;65.46;101251.55;108006;1277;60341;-83
2022/07/19 05:03:01;;;;;;;5.50;3.00;;;;;;;18.17;64.90;101249.20;107699;1279;76791;-84
2022/07/19 05:05:27;;;;;;;11.40;4.30;;;;;;;18.27;64.69;101251.55;107988;1277;72025;-82
2022/07/19 05:07:54;;;;;;;7.30;2.90;;;;;;;18.38;64.42;101255.65;107779;1277;74263;-81
2022/07/19 05:10:22;;;;;;;7.10;2.90;;;;;;;18.47;64.13;101251.90;108009;1276;62266;-81
2022/07/19 05:12:49;;;;;;;6.80;3.10;;;;;;;18.57;63.74;101249.61;107847;1277;60793;-81
2022/07/19 05:15:16;;;;;;;7.10;2.60;;;;;;;18.67;63.39;101252.29;107771;1277;76791;-81
2022/07/19 05:17:43;;;;;;;10.50;3.10;;;;;;;18.83;63.16;101252.94;107638;1277;71114;-81
2022/07/19 05:20:10;;;;;;;5.90;2.40;;;;;;;19.01;62.71;101253.00;107786;1277;73128;-82
2022/07/19 05:22:37;;;;;;;5.30;2.30;;;;;;;19.16;62.06;101253.46;107979;1277;63319;-82
2022/07/19 05:25:10;;;;;;;4.20;2.50;;;;;;;19.32;61.49;101251.60;107968;1276;60392;-81
2022/07/19 05:27:37;;;;;;;6.20;2.20;;;;;;;19.47;61.14;101253.48;107737;1277;76776;-81
2022/07/19 05:30:05;;;;;;;6.50;2.40;;;;;;;19.61;60.80;101250.69;108021;1277;71540;-81
2022/07/19 05:32:32;;;;;;;4.20;2.50;;;;;;;19.75;60.30;101249.05;108037;1277;73414;-81
2022/07/19 05:34:59;;;;;;;5.90;2.40;;;;;;;19.89;60.03;101247.27;107986;1276;62275;-82
2022/07/19 05:37:26;;;;;;;7.50;2.40;;;;;;;20.03;59.53;101243.36;108023;1276;60306;-82
2022/07/19 05:40:04;;;;;;;5.70;2.40;;;;;;;20.16;59.00;101249.19;107825;1277;76232;-81
2022/07/19 05:42:30;;;;;;;4.30;2.00;;;;;;;20.30;58.59;101247.37;108060;1276;71018;-82
2022/07/19 05:44:58;;;;;;;7.50;2.30;;;;;;;20.45;57.67;101250.42;107804;1277;74181;-82
2022/07/19 05:47:24;;;;;;;8.80;2.40;;;;;;;20.59;57.29;101257.09;107806;1277;61691;-82
2022/07/19 05:49:51;;;;;;;4.90;2.50;;;;;;;20.74;56.55;101250.40;107814;1277;60310;-82
2022/07/19 05:52:18;;;;;;;5.60;2.40;;;;;;;20.87;55.84;101253.69;107776;1277;76896;-82
2022/07/19 05:54:51;;;;;;;4.70;2.10;;;;;;;21.01;55.67;101253.90;107608;1277;72420;-82
2022/07/19 05:57:18;;;;;;;4.40;2.20;;;;;;;21.16;54.97;101256.92;107764;1277;74114;-82
2022/07/19 05:59:45;;;;;;;5.40;2.00;;;;;;;21.29;54.37;101258.11;107759;1277;62180;-82
2022/07/19 06:02:11;;;;;;;6.10;2.40;;;;;;;21.44;54.09;101258.97;108029;1276;61018;-82
2022/07/19 06:04:39;;;;;;;6.10;2.10;;;;;;;21.61;53.76;101259.60;107840;1276;76374;-82
2022/07/19 06:07:06;;;;;;;4.50;2.00;;;;;;;21.78;53.27;101259.77;108005;1276;71462;-81
2022/07/19 06:09:33;;;;;;;8.50;2.00;;;;;;;21.97;53.02;101259.86;107736;1277;72757;-82
2022/07/19 06:12:00;;;;;;;7.30;2.30;;;;;;;22.16;52.74;101254.48;107802;1277;60408;-84
2022/07/19 06:14:27;;;;;;;5.40;2.30;;;;;;;22.34;52.23;101256.77;107824;1277;61302;-84
2022/07/19 06:16:54;;;;;;;9.60;2.30;;;;;;;22.51;51.49;101255.91;107711;1277;75827;-84
2022/07/19 06:19:22;;;;;;;6.50;2.50;;;;;;;22.69;51.02;101258.36;107878;1276;72763;-83
2022/07/19 06:21:49;;;;;;;4.80;2.20;;;;;;;22.86;50.59;101256.17;107807;1276;74799;-83
2022/07/19 06:24:16;;;;;;;7.70;2.20;;;;;;;23.04;50.12;101259.21;107853;1277;62115;-83
2022/07/19 06:26:43;;;;;;;6.20;2.00;;;;;;;23.23;49.14;101259.71;107856;1276;60329;-83
2022/07/19 06:29:10;;;;;;;5.30;1.90;;;;;;;23.39;48.48;101257.27;107743;1277;77059;-83
2022/07/19 06:31:37;;;;;;;6.00;2.20;;;;;;;23.56;48.13;101256.77;107544;1277;72955;-83
2022/07/19 06:34:06;;;;;;;5.80;1.90;;;;;;;23.77;47.52;101252.27;107561;1276;74725;-83
2022/07/19 06:36:39;;;;;;;5.90;1.90;;;;;;;23.92;46.36;101254.76;107792;1277;61097;-83
2022/07/19 06:39:06;;;;;;;6.60;2.00;;;;;;;24.02;45.90;101257.13;107979;1276;60550;-83
2022/07/19 06:41:33;;;;;;;4.60;2.10;;;;;;;24.11;45.66;101257.27;107968;1276;75662;-83
2022/07/19 06:44:00;;;;;;;6.50;1.90;;;;;;;24.22;45.16;101259.05;107513;1277;71426;-83
2022/07/19 06:46:28;;;;;;;6.00;2.10;;;;;;;24.36;44.92;101258.94;107725;1277;74968;-83
2022/07/19 06:48:55;;;;;;;6.80;2.40;;;;;;;24.49;44.49;101256.88;107720;1276;60934;-83
2022/07/19 06:51:22;;;;;;;5.90;1.90;;;;;;;24.65;44.60;101260.42;107779;1277;61612;-82
2022/07/19 06:53:50;;;;;;;5.70;2.30;;;;;;;24.80;44.56;101259.00;107905;1276;76066;-83
2022/07/19 06:56:17;;;;;;;6.50;2.10;;;;;;;24.97;44.60;101264.36;107619;1279;71660;-82
2022/07/19 06:58:44;;;;;;;4.80;1.80;;;;;;;25.12;44.36;101257.83;107561;1279;74252;-82
2022/07/19 07:01:12;;;;;;;4.90;2.10;;;;;;;25.29;43.96;101257.66;107671;1277;60327;-82
2022/07/19 07:03:39;;;;;;;5.90;1.90;;;;;;;25.45;43.41;101251.83;107975;1276;59905;-83
2022/07/19 07:06:09;;;;;;;4.20;1.60;;;;;;;25.62;42.27;101250.85;108119;1276;76994;-82
2022/07/19 07:08:36;;;;;;;6.30;2.00;;;;;;;25.80;41.96;101252.52;107863;1276;73070;-82
2022/07/19 07:11:06;;;;;;;5.70;2.00;;;;;;;26.00;41.25;101253.46;107845;1277;73277;-82
2022/07/19 07:13:33;;;;;;;3.60;1.70;;;;;;;26.17;40.85;101255.22;107828;1276;61638;-82
2022/07/19 07:16:01;;;;;;;7.90;2.30;;;;;;;26.33;39.83;101256.65;107869;1277;60362;-83
2022/07/19 07:18:28;;;;;;;3.50;1.70;;;;;;;26.43;38.64;101250.79;107834;1277;76714;-82
2022/07/19 07:20:55;;;;;;;4.10;1.60;;;;;;;26.53;38.61;101250.89;107876;1277;71372;-82
2022/07/19 07:23:24;;;;;;;4.60;1.90;;;;;;;26.69;38.60;101250.89;107973;1277;72981;-82
2022/07/19 07:25:53;;;;;;;4.40;1.90;;;;;;;26.83;38.91;101249.77;107889;1277;60593;-82
2022/07/19 07:28:20;;;;;;;4.70;1.80;;;;;;;26.96;38.31;101249.23;108089;1276;60613;-82
2022/07/19 07:30:52;;;;;;;5.60;1.70;;;;;;;27.09;38.00;101246.84;108088;1276;74945;-83
2022/07/19 07:33:20;;;;;;;4.80;2.10;;;;;;;27.17;37.66;101245.75;107958;1276;71353;-83
2022/07/19 07:35:46;;;;;;;4.20;1.60;;;;;;;27.26;37.91;101243.91;107603;1279;74019;-82
2022/07/19 07:38:14;;;;;;;6.90;1.90;;;;;;;27.39;36.83;101243.42;107772;1279;60467;-82
2022/07/19 07:40:43;;;;;;;3.30;1.80;;;;;;;27.52;37.10;101241.05;107824;1278;60759;-83
2022/07/19 07:43:10;;;;;;;7.70;2.00;;;;;;;27.68;36.99;101241.17;107937;1276;76109;-82
2022/07/19 07:45:37;;;;;;;5.80;2.10;;;;;;;27.85;37.26;101239.89;107653;1279;71554;-82
2022/07/19 07:48:04;;;;;;;3.60;1.90;;;;;;;28.00;37.17;101237.29;107862;1276;71484;-82
2022/07/19 07:50:31;;;;;;;4.20;1.60;;;;;;;28.17;36.67;101236.89;108092;1276;60682;-83
2022/07/19 07:52:59;;;;;;;7.60;2.10;;;;;;;28.34;36.42;101238.38;108009;1276;60496;-83
2022/07/19 07:55:26;;;;;;;7.10;2.00;;;;;;;28.52;36.17;101235.73;107866;1277;75761;-82
2022/07/19 07:57:56;;;;;;;5.50;2.20;;;;;;;28.71;35.73;101239.39;107870;1276;71481;-83
2022/07/19 08:00:24;;;;;;;6.50;1.90;;;;;;;28.81;35.63;101240.95;107901;1277;72871;-83
2022/07/19 08:02:52;;;;;;;6.30;2.10;;;;;;;28.89;35.19;101244.34;107838;1276;60200;-83
2022/07/19 08:05:22;;;;;;;4.10;2.00;;;;;;;29.05;35.06;101245.25;108069;1276;60985;-83
2022/07/19 08:07:50;;;;;;;6.60;1.70;;;;;;;29.24;33.53;101241.73;107986;1276;77345;-83
2022/07/19 08:10:23;;;;;;;4.40;2.00;;;;;;;29.38;33.05;101238.74;107920;1277;71412;-82
2022/07/19 08:12:51;;;;;;;4.40;1.60;;;;;;;29.55;32.90;101241.26;108120;1276;74687;-82
2022/07/19 08:15:18;;;;;;;6.20;1.70;;;;;;;29.66;31.64;101239.83;107898;1277;60746;-83
2022/07/19 08:17:45;;;;;;;5.40;1.70;;;;;;;29.75;31.89;101243.47;107961;1276;61411;-83
2022/07/19 08:20:13;;;;;;;5.60;1.70;;;;;;;29.86;32.32;101241.27;107976;1276;75541;-82
2022/07/19 08:22:40;;;;;;;6.50;1.80;;;;;;;30.00;31.84;101238.96;107981;1277;71300;-83
2022/07/19 08:25:08;;;;;;;4.80;2.10;;;;;;;30.17;31.76;101241.81;108010;1277;75028;-82
2022/07/19 08:27:35;;;;;;;4.30;1.90;;;;;;;30.28;30.65;101240.08;107987;1277;60532;-82
2022/07/19 08:30:04;;;;;;;7.00;1.70;;;;;;;30.44;31.01;101241.80;108013;1276;62366;-82
2022/07/19 08:32:35;;;;;;;6.00;2.00;;;;;;;30.61;31.16;101240.95;108156;1276;75720;-82
2022/07/19 08:35:03;;;;;;;6.00;1.70;;;;;;;30.73;30.37;101233.31;108081;1276;73058;-83
2022/07/19 08:37:30;;;;;;;3.50;1.50;;;;;;;30.79;29.44;101232.01;107974;1277;72913;-83
2022/07/19 08:39:57;;;;;;;3.60;1.60;;;;;;;30.80;30.14;101226.02;107992;1277;60589;-82
2022/07/19 08:42:25;;;;;;;3.80;1.90;;;;;;;30.91;30.21;101228.34;107954;1276;61661;-82
2022/07/19 08:45:04;;;;;;;4.20;1.50;;;;;;;31.10;30.53;101224.57;108088;1276;75600;-83
2022/07/19 08:47:31;;;;;;;5.90;2.00;;;;;;;31.20;28.80;101217.50;107968;1277;71417;-82
2022/07/19 08:49:59;;;;;;;6.60;1.60;;;;;;;31.27;28.99;101218.23;107949;1276;73021;-84
2022/07/19 08:52:26;;;;;;;4.20;1.60;;;;;;;31.33;27.97;101213.52;107828;1276;60182;-82
2022/07/19 08:54:56;;;;;;;3.50;1.60;;;;;;;31.43;27.79;101214.33;107865;1277;61282;-82
2022/07/19 09:00:10;;;;;;;4.10;1.80;;;;;;;31.67;27.92;101216.28;108087;1276;72059;-82
2022/07/19 09:02:56;;;;;;;4.00;1.50;;;;;;;31.88;27.34;101222.35;107953;1277;73840;-82
2022/07/19 09:05:24;;;;;;;4.10;1.60;;;;;;;32.05;26.61;101218.19;107802;1276;62664;-82
2022/07/19 09:08:07;;;;;;;4.30;1.80;;;;;;;32.18;26.94;101221.04;107778;1276;61872;-82
2022/07/19 09:10:36;;;;;;;3.50;1.40;;;;;;;32.27;25.96;101221.21;108108;1276;75186;-83
2022/07/19 09:13:10;;;;;;;5.30;1.90;;;;;;;32.24;26.10;101223.98;107933;1278;71413;-83
2022/07/19 09:15:52;;;;;;;5.90;1.60;;;;;;;32.28;26.13;101218.84;108156;1276;73712;-82
2022/07/19 09:18:30;;;;;;;6.40;1.60;;;;;;;32.38;26.32;101222.00;107949;1277;60917;-82
2022/07/19 09:21:00;;;;;;;3.30;1.70;;;;;;;32.61;26.26;101223.52;107645;1277;61673;-82
2022/07/19 09:23:27;;;;;;;4.00;1.50;;;;;;;32.73;25.89;101221.43;108133;1276;75843;-82
2022/07/19 09:25:59;;;;;;;3.70;1.50;;;;;;;32.87;25.73;101214.96;107998;1276;69686;-82
2022/07/19 09:28:29;;;;;;;6.50;1.80;;;;;;;33.04;26.03;101217.38;108007;1276;73128;-83
2022/07/19 09:30:57;;;;;;;6.20;1.80;;;;;;;33.11;24.82;101214.14;108165;1276;60762;-83
2022/07/19 09:33:27;;;;;;;5.00;2.00;;;;;;;33.19;25.60;101212.27;108019;1276;60462;-82
2022/07/19 09:35:58;;;;;;;7.10;1.80;;;;;;;33.30;25.85;101210.77;107984;1277;75902;-82
2022/07/19 09:38:34;;;;;;;7.60;1.70;;;;;;;33.46;25.84;101211.27;107922;1279;73136;-82
2022/07/19 09:41:11;;;;;;;7.50;1.60;;;;;;;33.66;24.93;101207.86;107986;1277;73912;-82
2022/07/19 09:43:55;;;;;;;5.80;1.70;;;;;;;33.85;24.78;101207.21;107918;1276;60820;-82
2022/07/19 09:46:40;;;;;;;4.90;1.60;;;;;;;33.98;24.65;101195.38;107924;1276;60683;-82
2022/07/19 09:49:09;;;;;;;5.20;1.60;;;;;;;34.06;24.82;101192.77;107957;1277;76754;-81
2022/07/19 09:51:38;;;;;;;5.10;1.70;;;;;;;34.12;24.49;101189.52;108053;1276;71800;-82
2022/07/19 09:54:07;;;;;;;4.30;1.60;;;;;;;34.16;23.30;101188.98;107854;1277;73174;-82
2022/07/19 09:56:37;;;;;;;4.40;1.50;;;;;;;34.16;23.86;101189.02;107933;1276;60490;-82
2022/07/19 09:59:05;;;;;;;5.60;1.60;;;;;;;34.19;24.22;101188.65;107979;1277;60608;-82
2022/07/19 10:01:33;;;;;;;4.80;2.20;;;;;;;34.17;24.44;101189.98;108053;1276;75507;-81
2022/07/19 10:04:05;;;;;;;6.00;1.60;;;;;;;34.22;24.16;101188.44;108007;1276;71583;-82
2022/07/19 10:06:33;;;;;;;2.90;1.40;;;;;;;34.29;23.64;101184.96;108153;1276;73560;-83
2022/07/19 10:09:04;;;;;;;3.30;1.40;;;;;;;34.30;23.14;101184.61;108019;1276;60823;-84
2022/07/19 10:11:32;;;;;;;3.80;1.30;;;;;;;34.28;23.39;101183.02;107847;1276;60190;-81
2022/07/19 10:13:59;;;;;;;1.90;1.10;;;;;;;34.30;23.34;101183.19;107994;1277;74858;-83
2022/07/19 10:16:41;;;;;;;4.20;1.50;;;;;;;34.28;22.95;101182.26;107992;1276;73096;-82
2022/07/19 10:19:17;;;;;;;4.80;1.40;;;;;;;34.35;22.92;101174.36;108209;1276;74034;-82
2022/07/19 10:21:46;;;;;;;1.90;1.30;;;;;;;34.51;22.42;101174.84;107935;1277;61474;-82
2022/07/19 10:24:13;;;;;;;3.70;1.20;;;;;;;34.60;21.77;101174.54;108143;1276;60510;-83
2022/07/19 10:26:43;;;;;;;2.60;1.20;;;;;;;34.68;21.75;101173.48;108097;1276;76542;-81
2022/07/19 10:29:12;;;;;;;3.70;1.30;;;;;;;34.79;22.16;101167.44;108009;1278;72083;-81
2022/07/19 10:31:40;;;;;;;3.20;1.30;;;;;;;34.97;22.66;101166.27;108030;1276;72945;-82
2022/07/19 10:34:21;;;;;;;4.50;1.30;;;;;;;35.11;21.64;101167.45;107909;1277;60093;-82
2022/07/19 10:36:49;;;;;;;2.80;1.20;;;;;;;35.22;22.05;101168.63;108063;1276;61120;-83
2022/07/19 10:39:27;;;;;;;6.50;1.30;;;;;;;35.25;21.68;101165.54;108014;1276;77109;-82
2022/07/19 10:42:20;;;;;;;3.90;1.40;;;;;;;35.27;21.51;101164.75;108043;1276;71111;-82
2022/07/19 10:44:56;;;;;;;4.40;1.70;;;;;;;35.34;20.15;101166.59;107860;1276;74372;-81
2022/07/19 10:47:45;;;;;;;2.50;1.20;;;;;;;35.39;20.01;101161.05;107987;1277;61982;-82
2022/07/19 10:50:14;;;;;;;1.60;0.90;;;;;;;35.49;20.11;101154.50;108052;1276;59337;-82
2022/07/19 10:52:43;;;;;;;3.00;1.20;;;;;;;35.49;19.76;101154.98;107902;1277;75843;-82
2022/07/19 10:55:15;;;;;;;3.70;1.40;;;;;;;35.51;19.75;101151.83;107973;1277;72391;-82
2022/07/19 10:57:43;;;;;;;5.20;1.40;;;;;;;35.60;20.61;101146.13;108108;1276;73141;-82
2022/07/19 11:00:17;;;;;;;3.20;1.00;;;;;;;35.77;21.02;101141.50;107956;1277;60400;-83
2022/07/19 11:02:45;;;;;;;3.40;1.20;;;;;;;35.85;20.14;101140.23;108098;1276;59969;-82
2022/07/19 11:05:27;;;;;;;2.80;1.10;;;;;;;35.97;19.83;101139.52;107923;1276;76798;-82
2022/07/19 11:07:56;;;;;;;3.10;1.00;;;;;;;36.09;19.52;101132.92;107777;1277;71575;-82
2022/07/19 11:10:28;;;;;;;4.50;1.30;;;;;;;36.24;20.24;101134.62;107884;1276;72952;-82
2022/07/19 11:12:57;;;;;;;4.60;1.40;;;;;;;36.35;19.74;101135.71;107950;1276;60265;-81
2022/07/19 11:15:27;;;;;;;5.10;1.50;;;;;;;36.40;19.28;101136.94;108173;1276;60184;-82
2022/07/19 11:18:03;;;;;;;4.30;1.20;;;;;;;36.40;19.02;101129.66;108048;1275;75946;-82
2022/07/19 11:20:36;;;;;;;3.20;1.10;;;;;;;36.34;19.10;101125.48;108040;1276;71911;-82
2022/07/19 11:23:04;;;;;;;2.80;1.20;;;;;;;36.40;19.34;101124.04;108043;1276;74288;-82
2022/07/19 11:25:38;;;;;;;2.60;1.10;;;;;;;36.53;18.77;101122.22;107888;1277;61364;-81